sensor_id;sensor_type;location;lat;lon;timestamp;pressure;altitude;pressure_sealevel;temperature;humidity
59104;BME280;51449;51.676;5.812;2023-01-26T00:00:51;102519.31;;;-0.20;82.21
59104;BME280;51449;51.676;5.812;2023-01-26T00:03:14;102512.84;;;-0.19;81.92
59104;BME280;51449;51.676;5.812;2023-01-26T00:05:37;102514.50;;;-0.18;82.22
59104;BME280;51449;51.676;5.812;2023-01-26T00:08:00;102512.03;;;-0.19;82.47
59104;BME280;51449;51.676;5.812;2023-01-26T00:10:22;102503.91;;;-0.19;82.17
59104;BME280;51449;51.676;5.812;2023-01-26T00:12:44;102501.56;;;-0.16;82.28
59104;BME280;51449;51.676;5.812;2023-01-26T00:15:06;102498.66;;;-0.14;82.53
59104;BME280;51449;51.676;5.812;2023-01-26T00:17:29;102494.06;;;-0.14;82.56
59104;BME280;51449;51.676;5.812;2023-01-26T00:19:53;102492.63;;;-0.16;82.55
59104;BME280;51449;51.676;5.812;2023-01-26T00:22:15;102497.78;;;-0.15;82.76
59104;BME280;51449;51.676;5.812;2023-01-26T00:24:38;102488.69;;;-0.20;82.57
59104;BME280;51449;51.676;5.812;2023-01-26T00:26:59;102495.97;;;-0.21;82.56
59104;BME280;51449;51.676;5.812;2023-01-26T00:29:21;102490.94;;;-0.17;82.76
59104;BME280;51449;51.676;5.812;2023-01-26T00:31:44;102487.81;;;-0.14;82.63
59104;BME280;51449;51.676;5.812;2023-01-26T00:34:08;102478.63;;;-0.13;82.74
59104;BME280;51449;51.676;5.812;2023-01-26T00:36:30;102481.94;;;-0.11;82.60
59104;BME280;51449;51.676;5.812;2023-01-26T00:38:52;102476.97;;;-0.14;82.76
59104;BME280;51449;51.676;5.812;2023-01-26T00:41:14;102479.06;;;-0.16;82.59
59104;BME280;51449;51.676;5.812;2023-01-26T00:43:55;102472.63;;;-0.22;82.97
59104;BME280;51449;51.676;5.812;2023-01-26T00:46:17;102470.63;;;-0.27;83.09
59104;BME280;51449;51.676;5.812;2023-01-26T00:48:39;102470.63;;;-0.27;83.11
59104;BME280;51449;51.676;5.812;2023-01-26T00:51:01;102471.19;;;-0.25;83.38
59104;BME280;51449;51.676;5.812;2023-01-26T00:53:23;102465.78;;;-0.25;83.17
59104;BME280;51449;51.676;5.812;2023-01-26T00:55:47;102457.66;;;-0.25;82.87
59104;BME280;51449;51.676;5.812;2023-01-26T00:58:09;102452.03;;;-0.23;83.47
59104;BME280;51449;51.676;5.812;2023-01-26T01:00:32;102450.38;;;-0.24;83.35
59104;BME280;51449;51.676;5.812;2023-01-26T01:02:58;102446.63;;;-0.23;83.62
59104;BME280;51449;51.676;5.812;2023-01-26T01:05:22;102447.38;;;-0.16;83.13
59104;BME280;51449;51.676;5.812;2023-01-26T01:07:45;102451.53;;;-0.13;83.14
59104;BME280;51449;51.676;5.812;2023-01-26T01:10:07;102451.94;;;-0.10;83.30
59104;BME280;51449;51.676;5.812;2023-01-26T01:12:31;102445.66;;;-0.10;83.21
59104;BME280;51449;51.676;5.812;2023-01-26T01:14:53;102438.38;;;-0.10;83.64
59104;BME280;51449;51.676;5.812;2023-01-26T01:17:17;102442.53;;;-0.07;83.12
59104;BME280;51449;51.676;5.812;2023-01-26T01:19:39;102434.78;;;-0.04;83.00
59104;BME280;51449;51.676;5.812;2023-01-26T01:22:01;102444.53;;;-0.03;83.35
59104;BME280;51449;51.676;5.812;2023-01-26T01:24:24;102442.28;;;-0.06;82.84
59104;BME280;51449;51.676;5.812;2023-01-26T01:26:46;102443.34;;;-0.07;83.09
59104;BME280;51449;51.676;5.812;2023-01-26T01:29:11;102435.22;;;-0.07;83.09
59104;BME280;51449;51.676;5.812;2023-01-26T01:31:35;102426.69;;;-0.10;83.03
59104;BME280;51449;51.676;5.812;2023-01-26T01:33:58;102433.78;;;-0.09;82.87
59104;BME280;51449;51.676;5.812;2023-01-26T01:36:21;102435.69;;;-0.10;83.33
59104;BME280;51449;51.676;5.812;2023-01-26T01:38:46;102441.94;;;-0.09;82.80
59104;BME280;51449;51.676;5.812;2023-01-26T01:41:09;102435.91;;;-0.11;83.33
59104;BME280;51449;51.676;5.812;2023-01-26T01:43:31;102441.53;;;-0.13;83.41
59104;BME280;51449;51.676;5.812;2023-01-26T01:45:55;102439.88;;;-0.14;83.48
59104;BME280;51449;51.676;5.812;2023-01-26T01:48:28;102439.44;;;-0.11;82.93
59104;BME280;51449;51.676;5.812;2023-01-26T01:51:04;102440.25;;;-0.10;82.97
59104;BME280;51449;51.676;5.812;2023-01-26T01:53:37;102440.69;;;-0.13;83.20
59104;BME280;51449;51.676;5.812;2023-01-26T01:56:09;102436.09;;;-0.13;83.08
59104;BME280;51449;51.676;5.812;2023-01-26T01:58:42;102437.31;;;-0.09;83.23
59104;BME280;51449;51.676;5.812;2023-01-26T02:01:04;102430.63;;;-0.06;82.75
59104;BME280;51449;51.676;5.812;2023-01-26T02:03:28;102424.84;;;-0.10;83.51
59104;BME280;51449;51.676;5.812;2023-01-26T02:05:57;102428.13;;;-0.08;83.29
59104;BME280;51449;51.676;5.812;2023-01-26T02:08:28;102430.84;;;-0.08;83.17
59104;BME280;51449;51.676;5.812;2023-01-26T02:10:55;102432.53;;;-0.07;83.13
59104;BME280;51449;51.676;5.812;2023-01-26T02:13:21;102429.34;;;-0.04;83.36
59104;BME280;51449;51.676;5.812;2023-01-26T02:15:46;102416.03;;;-0.05;83.16
59104;BME280;51449;51.676;5.812;2023-01-26T02:18:08;102415.81;;;-0.04;83.38
59104;BME280;51449;51.676;5.812;2023-01-26T02:28:22;102416.88;;;-0.05;83.87
59104;BME280;51449;51.676;5.812;2023-01-26T02:30:47;102421.03;;;-0.02;83.65
59104;BME280;51449;51.676;5.812;2023-01-26T02:33:25;102418.69;;;0.02;83.20
59104;BME280;51449;51.676;5.812;2023-01-26T02:35:53;102410.53;;;0.02;83.42
59104;BME280;51449;51.676;5.812;2023-01-26T02:38:17;102409.72;;;0.01;83.65
59104;BME280;51449;51.676;5.812;2023-01-26T02:40:57;102408.44;;;0.04;83.82
59104;BME280;51449;51.676;5.812;2023-01-26T02:44:09;102405.94;;;0.02;83.59
59104;BME280;51449;51.676;5.812;2023-01-26T02:46:32;102406.81;;;0.03;83.57
59104;BME280;51449;51.676;5.812;2023-01-26T02:48:55;102405.13;;;0.02;83.89
59104;BME280;51449;51.676;5.812;2023-01-26T02:51:35;102398.06;;;0.01;83.92
59104;BME280;51449;51.676;5.812;2023-01-26T02:53:57;102403.69;;;-0.01;83.81
59104;BME280;51449;51.676;5.812;2023-01-26T02:56:20;102405.38;;;0.00;83.42
59104;BME280;51449;51.676;5.812;2023-01-26T02:58:45;102400.53;;;0.02;83.84
59104;BME280;51449;51.676;5.812;2023-01-26T03:01:07;102401.97;;;0.05;84.15
59104;BME280;51449;51.676;5.812;2023-01-26T03:03:40;102404.00;;;0.09;83.50
59104;BME280;51449;51.676;5.812;2023-01-26T03:06:03;102399.19;;;0.11;83.46
59104;BME280;51449;51.676;5.812;2023-01-26T03:08:25;102396.03;;;0.14;83.67
59104;BME280;51449;51.676;5.812;2023-01-26T03:10:48;102396.28;;;0.13;83.77
59104;BME280;51449;51.676;5.812;2023-01-26T03:13:11;102387.31;;;0.12;83.62
59104;BME280;51449;51.676;5.812;2023-01-26T03:15:36;102389.19;;;0.12;83.94
59104;BME280;51449;51.676;5.812;2023-01-26T03:18:08;102385.66;;;0.11;84.00
59104;BME280;51449;51.676;5.812;2023-01-26T03:20:53;102392.13;;;0.10;83.67
59104;BME280;51449;51.676;5.812;2023-01-26T03:23:34;102389.19;;;0.12;84.08
59104;BME280;51449;51.676;5.812;2023-01-26T03:26:17;102390.84;;;0.13;83.43
59104;BME280;51449;51.676;5.812;2023-01-26T03:28:58;102389.56;;;0.15;83.74
59104;BME280;51449;51.676;5.812;2023-01-26T03:31:20;102382.25;;;0.16;83.36
59104;BME280;51449;51.676;5.812;2023-01-26T03:33:43;102389.56;;;0.15;83.48
59104;BME280;51449;51.676;5.812;2023-01-26T03:36:05;102388.75;;;0.15;83.83
59104;BME280;51449;51.676;5.812;2023-01-26T03:38:28;102391.66;;;0.13;83.67
59104;BME280;51449;51.676;5.812;2023-01-26T03:40:56;102392.88;;;0.17;83.71
59104;BME280;51449;51.676;5.812;2023-01-26T03:43:37;102386.19;;;0.20;83.24
59104;BME280;51449;51.676;5.812;2023-01-26T03:46:18;102387.63;;;0.23;83.64
59104;BME280;51449;51.676;5.812;2023-01-26T03:48:59;102392.78;;;0.24;83.46
59104;BME280;51449;51.676;5.812;2023-01-26T03:51:44;102392.13;;;0.29;83.10
59104;BME280;51449;51.676;5.812;2023-01-26T03:54:24;102390.47;;;0.28;83.42
59104;BME280;51449;51.676;5.812;2023-01-26T03:57:05;102396.72;;;0.28;83.05
59104;BME280;51449;51.676;5.812;2023-01-26T03:59:28;102389.19;;;0.30;83.15
59104;BME280;51449;51.676;5.812;2023-01-26T04:02:10;102385.66;;;0.30;82.97
59104;BME280;51449;51.676;5.812;2023-01-26T04:04:53;102393.53;;;0.31;83.36
59104;BME280;51449;51.676;5.812;2023-01-26T04:07:38;102382.72;;;0.31;83.65
59104;BME280;51449;51.676;5.812;2023-01-26T04:10:20;102380.13;;;0.36;83.20
59104;BME280;51449;51.676;5.812;2023-01-26T04:12:43;102380.75;;;0.38;83.47
59104;BME280;51449;51.676;5.812;2023-01-26T04:15:11;102380.31;;;0.41;83.02
59104;BME280;51449;51.676;5.812;2023-01-26T04:17:53;102382.56;;;0.45;82.97
59104;BME280;51449;51.676;5.812;2023-01-26T04:20:34;102379.84;;;0.45;83.54
59104;BME280;51449;51.676;5.812;2023-01-26T04:23:18;102380.47;;;0.47;83.03
59104;BME280;51449;51.676;5.812;2023-01-26T04:25:41;102384.34;;;0.51;83.37
59104;BME280;51449;51.676;5.812;2023-01-26T04:28:04;102386.03;;;0.52;83.36
59104;BME280;51449;51.676;5.812;2023-01-26T04:30:26;102383.44;;;0.57;83.00
59104;BME280;51449;51.676;5.812;2023-01-26T04:32:49;102389.47;;;0.59;83.10
59104;BME280;51449;51.676;5.812;2023-01-26T04:35:13;102388.63;;;0.58;83.11
59104;BME280;51449;51.676;5.812;2023-01-26T04:37:37;102387.59;;;0.59;83.21
59104;BME280;51449;51.676;5.812;2023-01-26T04:39:59;102389.22;;;0.60;82.59
59104;BME280;51449;51.676;5.812;2023-01-26T04:42:23;102391.13;;;0.60;83.22
59104;BME280;51449;51.676;5.812;2023-01-26T04:44:46;102386.31;;;0.62;82.96
59104;BME280;51449;51.676;5.812;2023-01-26T04:47:08;102387.94;;;0.63;82.68
59104;BME280;51449;51.676;5.812;2023-01-26T04:49:31;102383.13;;;0.65;82.96
59104;BME280;51449;51.676;5.812;2023-01-26T04:51:52;102385.84;;;0.65;82.46
59104;BME280;51449;51.676;5.812;2023-01-26T04:54:14;102387.72;;;0.64;83.28
59104;BME280;51449;51.676;5.812;2023-01-26T04:56:38;102391.03;;;0.67;82.97
59104;BME280;51449;51.676;5.812;2023-01-26T04:59:05;102379.72;;;0.70;82.85
59104;BME280;51449;51.676;5.812;2023-01-26T05:01:30;102379.94;;;0.68;83.09
59104;BME280;51449;51.676;5.812;2023-01-26T05:03:52;102380.81;;;0.69;82.61
59104;BME280;51449;51.676;5.812;2023-01-26T05:06:15;102377.25;;;0.68;83.28
59104;BME280;51449;51.676;5.812;2023-01-26T05:08:39;102376.19;;;0.69;83.30
59104;BME280;51449;51.676;5.812;2023-01-26T05:11:03;102371.97;;;0.73;82.88
59104;BME280;51449;51.676;5.812;2023-01-26T05:13:48;102369.63;;;0.77;82.94
59104;BME280;51449;51.676;5.812;2023-01-26T05:16:19;102369.16;;;0.80;82.97
59104;BME280;51449;51.676;5.812;2023-01-26T05:19:01;102365.41;;;0.81;82.73
59104;BME280;51449;51.676;5.812;2023-01-26T05:21:48;102369.53;;;0.83;82.90
59104;BME280;51449;51.676;5.812;2023-01-26T05:24:11;102369.75;;;0.82;82.65
59104;BME280;51449;51.676;5.812;2023-01-26T05:26:45;102368.72;;;0.83;83.04
59104;BME280;51449;51.676;5.812;2023-01-26T05:29:10;102372.25;;;0.83;83.30
59104;BME280;51449;51.676;5.812;2023-01-26T05:31:32;102366.56;;;0.85;83.01
59104;BME280;51449;51.676;5.812;2023-01-26T05:33:54;102366.13;;;0.88;82.96
59104;BME280;51449;51.676;5.812;2023-01-26T05:36:17;102372.84;;;0.85;83.25
59104;BME280;51449;51.676;5.812;2023-01-26T05:38:39;102370.13;;;0.85;83.04
59104;BME280;51449;51.676;5.812;2023-01-26T05:41:01;102368.84;;;0.88;82.86
59104;BME280;51449;51.676;5.812;2023-01-26T05:43:28;102381.56;;;0.88;83.22
59104;BME280;51449;51.676;5.812;2023-01-26T05:46:02;102372.59;;;0.87;82.96
59104;BME280;51449;51.676;5.812;2023-01-26T05:48:24;102377.56;;;0.90;82.96
59104;BME280;51449;51.676;5.812;2023-01-26T05:50:46;102377.34;;;0.92;83.16
59104;BME280;51449;51.676;5.812;2023-01-26T05:53:11;102376.31;;;0.93;82.68
59104;BME280;51449;51.676;5.812;2023-01-26T05:55:33;102371.91;;;0.92;82.89
59104;BME280;51449;51.676;5.812;2023-01-26T05:57:55;102379.44;;;0.90;82.67
59104;BME280;51449;51.676;5.812;2023-01-26T06:00:17;102374.03;;;0.90;82.30
59104;BME280;51449;51.676;5.812;2023-01-26T06:02:49;102371.09;;;0.91;82.92
59104;BME280;51449;51.676;5.812;2023-01-26T06:05:12;102374.41;;;0.93;82.50
59104;BME280;51449;51.676;5.812;2023-01-26T06:07:36;102372.72;;;0.92;82.73
59104;BME280;51449;51.676;5.812;2023-01-26T06:10:04;102382.78;;;0.92;82.60
59104;BME280;51449;51.676;5.812;2023-01-26T06:12:50;102384.44;;;0.93;82.85
59104;BME280;51449;51.676;5.812;2023-01-26T06:15:32;102384.44;;;0.93;82.76
59104;BME280;51449;51.676;5.812;2023-01-26T06:17:54;102386.91;;;0.94;82.56
59104;BME280;51449;51.676;5.812;2023-01-26T06:20:15;102383.38;;;0.94;82.54
59104;BME280;51449;51.676;5.812;2023-01-26T06:22:46;102389.41;;;0.96;82.81
59104;BME280;51449;51.676;5.812;2023-01-26T06:25:08;102387.72;;;0.95;82.59
59104;BME280;51449;51.676;5.812;2023-01-26T06:27:30;102382.31;;;0.95;82.72
59104;BME280;51449;51.676;5.812;2023-01-26T06:29:55;102384.56;;;0.98;82.76
59104;BME280;51449;51.676;5.812;2023-01-26T06:32:17;102385.16;;;1.00;82.49
59104;BME280;51449;51.676;5.812;2023-01-26T06:34:42;102384.72;;;1.03;82.78
59104;BME280;51449;51.676;5.812;2023-01-26T06:37:04;102382.22;;;1.01;82.96
59104;BME280;51449;51.676;5.812;2023-01-26T06:39:29;102395.56;;;1.03;83.09
59104;BME280;51449;51.676;5.812;2023-01-26T06:41:52;102395.78;;;1.01;82.61
59104;BME280;51449;51.676;5.812;2023-01-26T06:44:14;102393.06;;;1.01;82.80
59104;BME280;51449;51.676;5.812;2023-01-26T06:46:36;102392.84;;;1.03;82.89
59104;BME280;51449;51.676;5.812;2023-01-26T06:49:01;102392.59;;;1.04;82.83
59104;BME280;51449;51.676;5.812;2023-01-26T06:51:43;102394.88;;;1.08;82.88
59104;BME280;51449;51.676;5.812;2023-01-26T06:54:10;102393.19;;;1.06;82.88
59104;BME280;51449;51.676;5.812;2023-01-26T06:56:51;102405.72;;;1.08;82.79
59104;BME280;51449;51.676;5.812;2023-01-26T06:59:39;102391.31;;;1.07;82.47
59104;BME280;51449;51.676;5.812;2023-01-26T07:02:25;102394.28;;;1.05;82.55
59104;BME280;51449;51.676;5.812;2023-01-26T07:04:47;102402.03;;;1.02;82.15
59104;BME280;51449;51.676;5.812;2023-01-26T07:07:10;102402.03;;;1.02;82.34
59104;BME280;51449;51.676;5.812;2023-01-26T07:09:32;102399.78;;;0.99;82.88
59104;BME280;51449;51.676;5.812;2023-01-26T07:11:54;102395.78;;;1.01;82.63
59104;BME280;51449;51.676;5.812;2023-01-26T07:14:15;102398.88;;;1.05;83.04
59104;BME280;51449;51.676;5.812;2023-01-26T07:16:37;102399.69;;;1.05;82.70
59104;BME280;51449;51.676;5.812;2023-01-26T07:18:59;102399.69;;;1.05;82.80
59104;BME280;51449;51.676;5.812;2023-01-26T07:21:21;102405.47;;;1.09;82.67
59104;BME280;51449;51.676;5.812;2023-01-26T07:23:44;102400.88;;;1.10;82.75
59104;BME280;51449;51.676;5.812;2023-01-26T07:26:06;102401.72;;;1.10;82.84
59104;BME280;51449;51.676;5.812;2023-01-26T07:28:28;102409.63;;;1.12;82.85
59104;BME280;51449;51.676;5.812;2023-01-26T07:30:52;102415.66;;;1.14;82.75
59104;BME280;51449;51.676;5.812;2023-01-26T07:33:18;102404.78;;;1.14;82.41
59104;BME280;51449;51.676;5.812;2023-01-26T07:35:39;102412.59;;;1.10;82.80
59104;BME280;51449;51.676;5.812;2023-01-26T07:38:04;102418.59;;;1.12;82.82
59104;BME280;51449;51.676;5.812;2023-01-26T07:40:27;102418.38;;;1.14;82.80
59104;BME280;51449;51.676;5.812;2023-01-26T07:42:49;102417.16;;;1.10;82.71
59104;BME280;51449;51.676;5.812;2023-01-26T07:45:30;102418.44;;;1.07;82.29
59104;BME280;51449;51.676;5.812;2023-01-26T07:47:56;102423.06;;;1.06;83.01
59104;BME280;51449;51.676;5.812;2023-01-26T07:50:18;102424.47;;;1.09;83.27
59104;BME280;51449;51.676;5.812;2023-01-26T07:52:41;102419.66;;;1.11;83.10
59104;BME280;51449;51.676;5.812;2023-01-26T07:55:04;102431.13;;;1.13;83.07
59104;BME280;51449;51.676;5.812;2023-01-26T07:57:27;102420.03;;;1.15;83.01
59104;BME280;51449;51.676;5.812;2023-01-26T07:59:48;102425.69;;;1.13;82.90
59104;BME280;51449;51.676;5.812;2023-01-26T08:02:10;102425.47;;;1.15;82.82
59104;BME280;51449;51.676;5.812;2023-01-26T08:04:32;102423.31;;;1.17;82.32
59104;BME280;51449;51.676;5.812;2023-01-26T08:06:53;102424.75;;;1.19;82.54
59104;BME280;51449;51.676;5.812;2023-01-26T08:09:15;102425.59;;;1.20;82.65
59104;BME280;51449;51.676;5.812;2023-01-26T08:11:37;102427.63;;;1.24;83.12
59104;BME280;51449;51.676;5.812;2023-01-26T08:13:59;102428.44;;;1.25;83.18
59104;BME280;51449;51.676;5.812;2023-01-26T08:16:20;102434.09;;;1.23;83.12
59104;BME280;51449;51.676;5.812;2023-01-26T08:18:44;102433.88;;;1.25;82.82
59104;BME280;51449;51.676;5.812;2023-01-26T08:21:08;102430.78;;;1.21;83.08
59104;BME280;51449;51.676;5.812;2023-01-26T08:23:30;102429.13;;;1.20;82.79
59104;BME280;51449;51.676;5.812;2023-01-26T08:25:52;102434.91;;;1.24;83.29
59104;BME280;51449;51.676;5.812;2023-01-26T08:28:15;102428.66;;;1.23;83.36
59104;BME280;51449;51.676;5.812;2023-01-26T08:30:37;102430.09;;;1.26;83.01
59104;BME280;51449;51.676;5.812;2023-01-26T08:32:58;102436.94;;;1.28;83.43
59104;BME280;51449;51.676;5.812;2023-01-26T08:35:20;102432.56;;;1.27;83.10
59104;BME280;51449;51.676;5.812;2023-01-26T08:37:42;102436.34;;;1.26;83.44
59104;BME280;51449;51.676;5.812;2023-01-26T08:40:04;102442.97;;;1.31;83.33
59104;BME280;51449;51.676;5.812;2023-01-26T08:42:27;102442.75;;;1.32;83.72
59104;BME280;51449;51.676;5.812;2023-01-26T08:44:49;102445.22;;;1.34;82.88
59104;BME280;51449;51.676;5.812;2023-01-26T08:47:12;102442.50;;;1.34;83.44
59104;BME280;51449;51.676;5.812;2023-01-26T08:49:34;102445.81;;;1.36;83.45
59104;BME280;51449;51.676;5.812;2023-01-26T08:51:56;102439.34;;;1.37;83.27
59104;BME280;51449;51.676;5.812;2023-01-26T08:54:17;102444.78;;;1.37;82.90
59104;BME280;51449;51.676;5.812;2023-01-26T08:56:40;102455.16;;;1.40;83.88
59104;BME280;51449;51.676;5.812;2023-01-26T08:59:02;102450.56;;;1.40;83.64
59104;BME280;51449;51.676;5.812;2023-01-26T09:01:23;102447.84;;;1.40;83.42
59104;BME280;51449;51.676;5.812;2023-01-26T09:03:45;102450.09;;;1.43;83.67
59104;BME280;51449;51.676;5.812;2023-01-26T09:06:08;102449.88;;;1.45;83.36
59104;BME280;51449;51.676;5.812;2023-01-26T09:08:32;102456.13;;;1.45;83.45
59104;BME280;51449;51.676;5.812;2023-01-26T09:10:54;102453.41;;;1.45;83.19
59104;BME280;51449;51.676;5.812;2023-01-26T09:13:16;102443.34;;;1.46;83.29
59104;BME280;51449;51.676;5.812;2023-01-26T09:15:37;102454.00;;;1.47;83.07
59104;BME280;51449;51.676;5.812;2023-01-26T09:17:59;102453.78;;;1.49;83.88
59104;BME280;51449;51.676;5.812;2023-01-26T09:20:21;102461.19;;;1.54;83.55
59104;BME280;51449;51.676;5.812;2023-01-26T09:22:43;102449.91;;;1.57;83.49
59104;BME280;51449;51.676;5.812;2023-01-26T09:25:05;102451.66;;;1.63;83.78
59104;BME280;51449;51.676;5.812;2023-01-26T09:27:27;102450.16;;;1.67;83.56
59104;BME280;51449;51.676;5.812;2023-01-26T09:29:49;102450.50;;;1.70;83.30
59104;BME280;51449;51.676;5.812;2023-01-26T09:32:11;102456.66;;;1.78;83.65
59104;BME280;51449;51.676;5.812;2023-01-26T09:34:33;102449.69;;;1.82;83.41
59104;BME280;51449;51.676;5.812;2023-01-26T09:36:54;102452.78;;;1.85;83.59
59104;BME280;51449;51.676;5.812;2023-01-26T09:39:16;102452.91;;;1.90;83.54
59104;BME280;51449;51.676;5.812;2023-01-26T09:44:54;102457.63;;;1.83;83.52
59104;BME280;51449;51.676;5.812;2023-01-26T09:47:50;102463.75;;;1.79;83.05
59104;BME280;51449;51.676;5.812;2023-01-26T09:50:26;102455.00;;;1.77;83.91
59104;BME280;51449;51.676;5.812;2023-01-26T09:53:11;102461.03;;;1.79;83.59
59104;BME280;51449;51.676;5.812;2023-01-26T09:55:39;102453.47;;;1.81;83.67
59104;BME280;51449;51.676;5.812;2023-01-26T09:58:05;102451.59;;;1.81;83.39
59104;BME280;51449;51.676;5.812;2023-01-26T10:00:45;102447.44;;;1.79;83.72
59104;BME280;51449;51.676;5.812;2023-01-26T10:03:34;102461.03;;;1.79;83.54
59104;BME280;51449;51.676;5.812;2023-01-26T10:06:11;102451.81;;;1.80;84.25
59104;BME280;51449;51.676;5.812;2023-01-26T10:08:57;102448.28;;;1.79;83.92
59104;BME280;51449;51.676;5.812;2023-01-26T10:11:34;102451.81;;;1.80;83.78
59104;BME280;51449;51.676;5.812;2023-01-26T10:14:04;102444.47;;;1.80;84.32
59104;BME280;51449;51.676;5.812;2023-01-26T10:16:34;102445.91;;;1.83;84.31
59104;BME280;51449;51.676;5.812;2023-01-26T10:19:02;102449.31;;;1.90;84.32
59104;BME280;51449;51.676;5.812;2023-01-26T10:21:32;102437.63;;;1.89;84.19
59104;BME280;51449;51.676;5.812;2023-01-26T10:24:01;102442.59;;;1.92;84.17
59104;BME280;51449;51.676;5.812;2023-01-26T10:26:30;102438.13;;;1.98;84.28
59104;BME280;51449;51.676;5.812;2023-01-26T10:28:53;102436.56;;;2.02;84.12
59104;BME280;51449;51.676;5.812;2023-01-26T10:31:21;102444.28;;;2.05;84.50
59104;BME280;51449;51.676;5.812;2023-01-26T10:33:52;102438.59;;;2.07;84.20
59104;BME280;51449;51.676;5.812;2023-01-26T10:36:17;102448.16;;;2.09;84.42
59104;BME280;51449;51.676;5.812;2023-01-26T10:38:40;102442.97;;;2.08;84.42
59104;BME280;51449;51.676;5.812;2023-01-26T10:43:39;102453.13;;;2.12;84.88
59104;BME280;51449;51.676;5.812;2023-01-26T10:46:03;102453.97;;;2.13;84.94
59104;BME280;51449;51.676;5.812;2023-01-26T10:48:25;102451.00;;;2.14;85.07
59104;BME280;51449;51.676;5.812;2023-01-26T10:50:47;102439.06;;;2.16;85.14
59104;BME280;51449;51.676;5.812;2023-01-26T10:53:18;102450.06;;;2.21;85.27
59104;BME280;51449;51.676;5.812;2023-01-26T10:56:10;102443.09;;;2.25;84.91
59104;BME280;51449;51.676;5.812;2023-01-26T10:58:46;102448.03;;;2.28;85.43
59104;BME280;51449;51.676;5.812;2023-01-26T11:01:10;102446.97;;;2.29;85.30
59104;BME280;51449;51.676;5.812;2023-01-26T11:03:36;102445.44;;;2.33;85.51
59104;BME280;51449;51.676;5.812;2023-01-26T11:06:14;102445.31;;;2.40;85.67
59104;BME280;51449;51.676;5.812;2023-01-26T11:08:38;102444.59;;;2.44;85.98
59104;BME280;51449;51.676;5.812;2023-01-26T11:11:01;102437.69;;;2.53;85.50
59104;BME280;51449;51.676;5.812;2023-01-26T11:13:24;102443.84;;;2.61;85.88
59104;BME280;51449;51.676;5.812;2023-01-26T11:16:10;102450.56;;;2.70;85.91
59104;BME280;51449;51.676;5.812;2023-01-26T11:18:57;102441.78;;;2.79;86.04
59104;BME280;51449;51.676;5.812;2023-01-26T11:21:40;102439.50;;;2.88;85.96
59104;BME280;51449;51.676;5.812;2023-01-26T11:24:16;102437.72;;;2.94;86.16
59104;BME280;51449;51.676;5.812;2023-01-26T11:32:37;102430.19;;;3.13;86.62
59104;BME280;51449;51.676;5.812;2023-01-26T11:35:21;102432.50;;;3.21;87.02
59104;BME280;51449;51.676;5.812;2023-01-26T11:41:09;102439.88;;;3.37;87.46
59104;BME280;51449;51.676;5.812;2023-01-26T11:46:47;102425.19;;;3.55;87.96
59104;BME280;51449;51.676;5.812;2023-01-26T11:50:02;102438.16;;;3.65;88.07
59104;BME280;51449;51.676;5.812;2023-01-26T11:53:13;102426.28;;;3.71;88.43
59104;BME280;51449;51.676;5.812;2023-01-26T11:55:57;102423.63;;;3.76;88.50
59104;BME280;51449;51.676;5.812;2023-01-26T12:00:58;102418.34;;;3.86;88.79
59104;BME280;51449;51.676;5.812;2023-01-26T12:06:03;102414.19;;;4.01;89.08
59104;BME280;51449;51.676;5.812;2023-01-26T12:08:38;102417.31;;;4.10;89.18
59104;BME280;51449;51.676;5.812;2023-01-26T12:11:08;102418.81;;;4.17;89.24
59104;BME280;51449;51.676;5.812;2023-01-26T12:13:45;102403.63;;;4.26;89.39
59104;BME280;51449;51.676;5.812;2023-01-26T12:16:34;102412.78;;;4.37;89.24
59104;BME280;51449;51.676;5.812;2023-01-26T12:19:12;102409.03;;;4.43;89.59
59104;BME280;51449;51.676;5.812;2023-01-26T12:21:44;102407.28;;;4.54;89.18
59104;BME280;51449;51.676;5.812;2023-01-26T12:24:13;102395.91;;;4.62;89.04
59104;BME280;51449;51.676;5.812;2023-01-26T12:27:02;102391.66;;;4.71;88.76
59104;BME280;51449;51.676;5.812;2023-01-26T12:29:45;102403.25;;;4.84;89.42
59104;BME280;51449;51.676;5.812;2023-01-26T12:32:14;102395.13;;;4.89;89.28
59104;BME280;51449;51.676;5.812;2023-01-26T12:34:37;102382.66;;;4.98;89.10
59104;BME280;51449;51.676;5.812;2023-01-26T12:43:01;102378.03;;;5.31;89.07
59104;BME280;51449;51.676;5.812;2023-01-26T12:45:40;102369.66;;;5.43;88.97
59104;BME280;51449;51.676;5.812;2023-01-26T12:48:13;102362.94;;;5.55;89.02
59104;BME280;51449;51.676;5.812;2023-01-26T12:50:45;102359.19;;;5.67;88.74
59104;BME280;51449;51.676;5.812;2023-01-26T12:53:27;102354.88;;;5.76;88.78
59104;BME280;51449;51.676;5.812;2023-01-26T12:58:24;102347.66;;;5.97;87.79
59104;BME280;51449;51.676;5.812;2023-01-26T13:01:00;102344.13;;;6.07;88.03
59104;BME280;51449;51.676;5.812;2023-01-26T13:03:32;102345.84;;;6.18;87.91
59104;BME280;51449;51.676;5.812;2023-01-26T13:10:54;102342.13;;;6.45;88.22
59104;BME280;51449;51.676;5.812;2023-01-26T13:15:38;102331.22;;;6.65;87.69
59104;BME280;51449;51.676;5.812;2023-01-26T13:18:02;102340.00;;;6.77;87.38
59104;BME280;51449;51.676;5.812;2023-01-26T13:20:47;102337.31;;;6.93;86.73
59104;BME280;51449;51.676;5.812;2023-01-26T13:23:36;102335.97;;;7.05;86.51
59104;BME280;51449;51.676;5.812;2023-01-26T13:31:45;102326.09;;;7.30;85.03
59104;BME280;51449;51.676;5.812;2023-01-26T13:34:07;102328.56;;;7.37;84.75
59104;BME280;51449;51.676;5.812;2023-01-26T13:36:34;102332.69;;;7.39;84.12
59104;BME280;51449;51.676;5.812;2023-01-26T13:39:09;102330.50;;;7.46;83.54
59104;BME280;51449;51.676;5.812;2023-01-26T13:41:46;102315.94;;;7.56;83.33
59104;BME280;51449;51.676;5.812;2023-01-26T13:44:22;102310.44;;;7.61;83.04
59104;BME280;51449;51.676;5.812;2023-01-26T13:46:59;102313.19;;;7.66;82.36
59104;BME280;51449;51.676;5.812;2023-01-26T13:49:38;102327.97;;;7.70;81.77
59104;BME280;51449;51.676;5.812;2023-01-26T13:52:02;102316.72;;;7.72;81.41
59104;BME280;51449;51.676;5.812;2023-01-26T13:54:25;102324.94;;;7.77;80.84